createdAt,value
2022-09-06T00:00:35.688Z,44.77
2022-09-06T00:05:41.371Z,44.89
2022-09-06T00:10:44.030Z,45.17
2022-09-06T00:15:46.908Z,45.06
2022-09-06T00:20:50.960Z,44.95
2022-09-06T00:25:53.613Z,44.88
2022-09-06T00:30:56.336Z,45.04
2022-09-06T00:36:03.490Z,44.88
2022-09-06T00:41:06.721Z,44.97
2022-09-06T00:46:10.630Z,45.17
2022-09-06T00:51:14.747Z,45.30
2022-09-06T00:56:17.385Z,45.32
2022-09-06T01:01:20.384Z,44.99
2022-09-06T01:06:26.314Z,45.26
2022-09-06T01:11:39.221Z,45.10
2022-09-06T01:16:46.185Z,45.43
2022-09-06T01:21:51.291Z,45.41
2022-09-06T01:27:35.971Z,45.30
2022-09-06T01:32:43.395Z,45.38
2022-09-06T01:37:46.152Z,45.30
2022-09-06T01:42:49.051Z,45.36
2022-09-06T01:47:57.827Z,45.26
2022-09-06T01:53:03.099Z,45.50
2022-09-06T01:58:28.451Z,45.47
2022-09-06T02:03:35.386Z,45.01
2022-09-06T02:08:39.577Z,45.17
2022-09-06T02:13:46.038Z,45.37
2022-09-06T02:18:52.314Z,45.15
2022-09-06T02:23:55.086Z,45.39
2022-09-06T02:28:57.841Z,45.37
2022-09-06T02:34:01.856Z,44.91
2022-09-06T02:39:05.158Z,45.26
2022-09-06T02:44:07.840Z,44.98
2022-09-06T02:49:11.977Z,45.14
2022-09-06T02:54:14.925Z,45.47
2022-09-06T02:59:17.773Z,45.10
2022-09-06T03:04:21.756Z,45.07
2022-09-06T03:09:25.008Z,45.36
2022-09-06T03:14:27.673Z,45.27
2022-09-06T03:19:31.672Z,45.34
2022-09-06T03:24:34.346Z,45.57
2022-09-06T03:29:37.140Z,45.64
2022-09-06T03:34:41.112Z,45.57
2022-09-06T03:39:43.966Z,45.49
2022-09-06T03:44:46.881Z,45.43
2022-09-06T03:49:50.872Z,45.38
2022-09-06T03:54:53.573Z,45.51
2022-09-06T03:59:56.257Z,45.42
2022-09-06T04:05:00.333Z,45.43
2022-09-06T04:10:03.976Z,45.46
2022-09-06T04:15:07.750Z,45.32
2022-09-06T04:20:11.879Z,45.50
2022-09-06T04:25:14.504Z,45.23
2022-09-06T04:30:17.510Z,45.30
2022-09-06T04:35:21.544Z,45.01
2022-09-06T04:40:24.227Z,45.36
2022-09-06T04:45:27.140Z,45.11
2022-09-06T04:50:31.192Z,45.13
2022-09-06T04:55:40.493Z,45.27
2022-09-06T05:00:44.656Z,45.03
2022-09-06T05:05:48.696Z,45.08
2022-09-06T05:10:52.394Z,45.11
2022-09-06T05:15:55.048Z,45.24
2022-09-06T05:20:59.000Z,45.24
2022-09-06T05:26:01.674Z,45.10
2022-09-06T05:31:08.553Z,44.96
2022-09-06T05:36:12.769Z,45.11
2022-09-06T05:41:15.426Z,45.02
2022-09-06T05:46:18.227Z,45.15
2022-09-06T05:51:22.269Z,45.24
2022-09-06T05:56:24.960Z,45.37
2022-09-06T06:01:28.249Z,45.35
2022-09-06T06:06:33.061Z,45.12
2022-09-06T06:11:35.818Z,45.23
2022-09-06T06:16:38.667Z,45.37
2022-09-06T06:21:43.714Z,45.48
2022-09-06T06:26:46.454Z,45.44
2022-09-06T06:31:49.188Z,45.44
2022-09-06T06:36:53.216Z,45.59
2022-09-06T06:41:56.027Z,45.50
2022-09-06T06:47:11.915Z,45.45
2022-09-06T06:52:15.978Z,46.23
2022-09-06T06:57:18.643Z,46.83
2022-09-06T07:02:21.449Z,47.23
2022-09-06T07:07:34.420Z,47.99
2022-09-06T07:12:39.333Z,47.79
2022-09-06T07:17:42.010Z,48.22
2022-09-06T07:22:46.012Z,48.41
2022-09-06T07:27:49.610Z,48.79
2022-09-06T07:32:52.972Z,49.10
2022-09-06T07:37:58.249Z,49.21
2022-09-06T07:43:00.977Z,49.45
2022-09-06T07:48:03.998Z,49.95
2022-09-06T07:53:10.906Z,50.53
2022-09-06T07:58:18.634Z,50.70
2022-09-06T08:03:21.417Z,50.42
2022-09-06T08:13:52.586Z,49.95
2022-09-06T08:18:56.265Z,49.63
2022-09-06T08:24:00.998Z,49.65
2022-09-06T08:29:06.683Z,49.87
2022-09-06T08:34:09.593Z,50.35
2022-09-06T08:39:13.569Z,50.56
2022-09-06T08:49:41.540Z,50.80
2022-09-06T08:54:48.036Z,50.91
2022-09-06T08:59:50.703Z,51.46
2022-09-06T09:04:54.303Z,51.54
2022-09-06T09:09:58.335Z,51.59
2022-09-06T09:15:03.227Z,52.13
2022-09-06T09:20:08.306Z,52.33
2022-09-06T09:25:15.432Z,51.96
2022-09-06T09:35:42.184Z,52.01
2022-09-06T09:40:52.291Z,52.35
2022-09-06T09:46:16.116Z,52.54
2022-09-06T09:51:26.088Z,52.32
2022-09-06T09:56:35.598Z,52.51
2022-09-06T10:01:38.404Z,52.44
2022-09-06T10:12:05.934Z,52.58
2022-09-06T10:17:08.632Z,51.82
2022-09-06T10:22:27.421Z,51.50
2022-09-06T10:27:33.343Z,51.28
2022-09-06T10:32:42.424Z,50.86
2022-09-06T10:38:07.511Z,50.50
2022-09-06T10:43:14.489Z,50.07
2022-09-06T10:48:20.653Z,49.79
2022-09-06T10:53:35.808Z,49.52
2022-09-06T11:04:12.807Z,49.52
2022-09-06T11:09:17.941Z,49.33
2022-09-06T11:14:21.985Z,49.45
2022-09-06T11:19:25.985Z,49.38
2022-09-06T11:24:34.068Z,49.49
2022-09-06T11:29:40.885Z,49.35
2022-09-06T11:34:45.689Z,49.23
2022-09-06T11:45:21.347Z,49.33
2022-09-06T11:50:42.751Z,49.17
2022-09-06T11:55:46.155Z,49.17
2022-09-06T12:01:24.965Z,49.00
2022-09-06T12:06:28.593Z,49.09
2022-09-06T12:11:43.563Z,49.00
2022-09-06T12:17:25.961Z,48.80
2022-09-06T12:22:57.613Z,48.76
2022-09-06T12:28:00.710Z,49.02
2022-09-06T12:33:03.652Z,48.81
2022-09-06T12:38:09.341Z,48.74
2022-09-06T12:43:12.939Z,48.70
2022-09-06T12:48:27.036Z,48.47
2022-09-06T12:53:31.734Z,48.40
2022-09-06T12:58:34.610Z,48.24
2022-09-06T13:03:39.378Z,48.22
2022-09-06T13:08:46.328Z,48.31
2022-09-06T13:13:49.614Z,48.29
2022-09-06T13:18:52.242Z,48.35
2022-09-06T13:23:58.942Z,48.28
2022-09-06T13:29:11.515Z,48.06
2022-09-06T13:34:20.991Z,48.17
2022-09-06T13:39:43.973Z,48.13
2022-09-06T13:44:46.709Z,47.99
2022-09-06T13:49:49.461Z,47.94
2022-09-06T13:54:53.413Z,47.82
2022-09-06T13:59:56.195Z,47.94
2022-09-06T14:04:58.930Z,47.82
2022-09-06T14:10:02.944Z,47.79
2022-09-06T14:15:06.894Z,47.59
2022-09-06T14:20:10.775Z,47.47
2022-09-06T14:25:15.022Z,47.64
2022-09-06T14:30:17.879Z,47.45
2022-09-06T14:35:20.511Z,47.35
2022-09-06T14:40:24.551Z,47.55
2022-09-06T14:45:27.233Z,47.60
2022-09-06T14:50:31.264Z,47.75
2022-09-06T14:55:36.038Z,47.89
2022-09-06T15:00:38.843Z,48.00
2022-09-06T15:05:41.557Z,48.06
2022-09-06T15:10:54.966Z,47.79
2022-09-06T15:15:57.792Z,47.86
2022-09-06T15:21:04.367Z,48.07
2022-09-06T15:26:09.332Z,48.27
2022-09-06T15:31:12.498Z,48.10
2022-09-06T15:36:16.232Z,48.17
2022-09-06T15:41:21.339Z,48.12
2022-09-06T15:46:41.667Z,47.92
2022-09-06T15:51:44.552Z,47.59
2022-09-06T15:56:49.075Z,47.18
2022-09-06T16:01:51.929Z,44.48
2022-09-06T16:06:54.672Z,45.54
2022-09-06T16:11:58.713Z,44.79
2022-09-06T16:17:01.585Z,44.46
2022-09-06T16:22:04.754Z,43.98
2022-09-06T16:27:08.864Z,43.92
2022-09-06T16:32:11.689Z,44.29
2022-09-06T16:37:14.363Z,44.36
2022-09-06T16:42:18.482Z,44.60
2022-09-06T16:47:21.313Z,44.19
2022-09-06T16:52:24.066Z,44.80
2022-09-06T16:57:28.260Z,45.62
2022-09-06T17:02:31.378Z,45.72
2022-09-06T17:07:34.230Z,45.90
2022-09-06T17:12:38.423Z,45.98
2022-09-06T17:17:41.240Z,46.18
2022-09-06T17:22:43.993Z,46.36
2022-09-06T17:27:48.380Z,46.62
2022-09-06T17:32:51.297Z,46.79
2022-09-06T17:37:54.187Z,46.73
2022-09-06T17:42:58.251Z,46.63
2022-09-06T17:48:00.948Z,46.95
2022-09-06T17:53:03.866Z,46.80
2022-09-06T17:58:08.385Z,47.06
2022-09-06T18:03:11.306Z,47.18
2022-09-06T18:08:14.077Z,47.06
2022-09-06T18:13:18.202Z,47.43
2022-09-06T18:18:20.909Z,47.09
2022-09-06T18:23:23.630Z,47.48
2022-09-06T18:28:28.764Z,47.40
2022-09-06T18:33:31.571Z,47.38
2022-09-06T18:38:35.093Z,47.21
2022-09-06T18:43:40.505Z,47.39
2022-09-06T18:48:43.201Z,47.17
2022-09-06T18:53:46.550Z,47.35
2022-09-06T18:58:51.851Z,46.99
2022-09-06T19:03:54.709Z,47.32
2022-09-06T19:08:59.038Z,47.14
2022-09-06T19:14:03.117Z,46.97
2022-09-06T19:19:06.987Z,46.94
2022-09-06T19:24:10.206Z,47.28
2022-09-06T19:29:16.164Z,46.96
2022-09-06T19:34:19.182Z,46.67
2022-09-06T19:39:22.428Z,46.71
2022-09-06T19:44:26.527Z,47.15
2022-09-06T19:49:30.627Z,47.09
2022-09-06T19:54:33.325Z,47.05
2022-09-06T19:59:39.310Z,47.01
2022-09-06T20:04:42.011Z,47.01
2022-09-06T20:09:46.037Z,47.09
2022-09-06T20:14:51.541Z,47.22
2022-09-06T20:19:54.383Z,47.15
2022-09-06T20:24:57.095Z,46.94
2022-09-06T20:30:01.480Z,47.05
2022-09-06T20:35:04.617Z,46.84
2022-09-06T20:40:09.130Z,47.21
2022-09-06T20:45:13.438Z,46.76
2022-09-06T20:50:16.577Z,46.83
2022-09-06T20:55:19.343Z,46.94
2022-09-06T21:00:23.605Z,46.96
2022-09-06T21:05:26.325Z,46.97
2022-09-06T21:10:29.054Z,47.01
2022-09-06T21:15:35.109Z,47.13
2022-09-06T21:20:38.869Z,47.01
2022-09-06T21:25:41.606Z,46.85
2022-09-06T21:30:45.687Z,47.23
2022-09-06T21:35:48.376Z,47.07
2022-09-06T21:40:51.067Z,47.47
2022-09-06T21:45:55.156Z,47.64
2022-09-06T21:50:57.937Z,47.25
2022-09-06T21:56:01.062Z,47.57
2022-09-06T22:01:05.465Z,47.34
2022-09-06T22:06:11.618Z,47.63
2022-09-06T22:11:15.603Z,47.60
2022-09-06T22:16:20.932Z,47.71
2022-09-06T22:21:24.428Z,47.77
2022-09-06T22:26:27.725Z,47.80
2022-09-06T22:31:32.871Z,47.95
2022-09-06T22:36:35.684Z,47.96
2022-09-06T22:41:38.515Z,48.08
2022-09-06T22:46:42.732Z,48.34
2022-09-06T22:51:45.528Z,48.52
2022-09-06T22:56:48.272Z,48.55
2022-09-06T23:01:52.391Z,48.75
2022-09-06T23:06:55.072Z,48.71
2022-09-06T23:11:57.804Z,48.76
2022-09-06T23:17:02.119Z,48.90
2022-09-06T23:22:05.027Z,49.02
2022-09-06T23:27:07.747Z,48.98
2022-09-06T23:32:11.895Z,49.24
2022-09-06T23:37:14.606Z,49.53
2022-09-06T23:42:17.365Z,49.54
2022-09-06T23:47:21.449Z,49.71
2022-09-06T23:52:24.381Z,49.77
2022-09-06T23:57:27.165Z,49.74
